In Rescue
 
Open Full Screen Window  High Contrast Mode
Wind Gusting 00 knots
04
July 25, 2021 9:03 AM EDT
Weather Information
Wind Direction
  300 °
Wind Speed
  04 kt (5 mph)
Wind Gust
  00 kt (0 mph)
Altimeter
29.94 in
Visibility
10 SM
Temperature
23° C
73° F
Dewpoint
22° C
72° F
Humidity
94%
1hr Rain Fall
00.00 in.
24hr Rain Fall
01.50 in.
Sky Condition
Clear
VFR

METAR KJYM 251303Z AUTO 30004KT 10SM CLR 23/22 A2994 RMK AO2 T02250221

FAA Disclaimer: The data displayed is for advisory purposes only and is not to be used for flight planning or operations.